sensor_id;sensor_type;location;lat;lon;timestamp;temperature;humidity
55785;DHT22;41709;52.536;5.688;2023-05-28T00:00:15;12.20;85.40
55785;DHT22;41709;52.536;5.688;2023-05-28T00:02:41;12.20;85.40
55785;DHT22;41709;52.536;5.688;2023-05-28T00:05:06;12.10;85.60
55785;DHT22;41709;52.536;5.688;2023-05-28T00:07:32;12.00;86.00
55785;DHT22;41709;52.536;5.688;2023-05-28T00:09:58;12.00;85.80
55785;DHT22;41709;52.536;5.688;2023-05-28T00:12:23;12.00;85.90
55785;DHT22;41709;52.536;5.688;2023-05-28T00:14:49;12.00;85.90
55785;DHT22;41709;52.536;5.688;2023-05-28T00:17:15;12.00;86.00
55785;DHT22;41709;52.536;5.688;2023-05-28T00:19:44;11.90;86.10
55785;DHT22;41709;52.536;5.688;2023-05-28T00:22:10;11.90;86.10
55785;DHT22;41709;52.536;5.688;2023-05-28T00:24:35;11.90;86.40
55785;DHT22;41709;52.536;5.688;2023-05-28T00:27:02;11.90;86.60
55785;DHT22;41709;52.536;5.688;2023-05-28T00:29:31;11.80;86.90
55785;DHT22;41709;52.536;5.688;2023-05-28T00:31:56;11.80;86.90
55785;DHT22;41709;52.536;5.688;2023-05-28T00:34:25;11.80;86.90
55785;DHT22;41709;52.536;5.688;2023-05-28T00:36:51;11.90;86.90
55785;DHT22;41709;52.536;5.688;2023-05-28T00:39:20;11.90;87.00
55785;DHT22;41709;52.536;5.688;2023-05-28T00:41:46;11.90;86.90
55785;DHT22;41709;52.536;5.688;2023-05-28T00:44:12;12.10;86.80
55785;DHT22;41709;52.536;5.688;2023-05-28T00:46:44;12.00;86.40
55785;DHT22;41709;52.536;5.688;2023-05-28T00:49:11;12.00;86.60
55785;DHT22;41709;52.536;5.688;2023-05-28T00:51:38;12.00;86.50
55785;DHT22;41709;52.536;5.688;2023-05-28T00:54:04;12.00;86.60
55785;DHT22;41709;52.536;5.688;2023-05-28T00:56:30;12.00;86.60
55785;DHT22;41709;52.536;5.688;2023-05-28T00:58:57;12.00;86.60
55785;DHT22;41709;52.536;5.688;2023-05-28T01:01:27;12.00;86.70
55785;DHT22;41709;52.536;5.688;2023-05-28T01:03:53;12.00;86.80
55785;DHT22;41709;52.536;5.688;2023-05-28T01:06:19;12.00;86.90
55785;DHT22;41709;52.536;5.688;2023-05-28T01:08:49;12.00;87.10
55785;DHT22;41709;52.536;5.688;2023-05-28T01:11:18;12.00;87.10
55785;DHT22;41709;52.536;5.688;2023-05-28T01:13:45;12.00;87.40
55785;DHT22;41709;52.536;5.688;2023-05-28T01:16:11;12.00;87.50
55785;DHT22;41709;52.536;5.688;2023-05-28T01:18:38;12.00;87.60
55785;DHT22;41709;52.536;5.688;2023-05-28T01:21:05;12.00;87.70
55785;DHT22;41709;52.536;5.688;2023-05-28T01:23:47;12.00;87.70
55785;DHT22;41709;52.536;5.688;2023-05-28T01:26:14;12.00;87.80
55785;DHT22;41709;52.536;5.688;2023-05-28T01:28:43;11.90;87.70
55785;DHT22;41709;52.536;5.688;2023-05-28T01:31:10;11.90;88.10
55785;DHT22;41709;52.536;5.688;2023-05-28T01:33:36;11.80;88.20
55785;DHT22;41709;52.536;5.688;2023-05-28T01:36:03;11.80;88.50
55785;DHT22;41709;52.536;5.688;2023-05-28T01:38:31;11.70;89.30
55785;DHT22;41709;52.536;5.688;2023-05-28T01:40:59;11.70;88.60
55785;DHT22;41709;52.536;5.688;2023-05-28T01:43:25;11.60;88.70
55785;DHT22;41709;52.536;5.688;2023-05-28T01:45:51;11.70;88.80
55785;DHT22;41709;52.536;5.688;2023-05-28T01:48:17;11.50;88.90
55785;DHT22;41709;52.536;5.688;2023-05-28T01:50:43;11.50;88.90
55785;DHT22;41709;52.536;5.688;2023-05-28T01:53:09;11.50;88.90
55785;DHT22;41709;52.536;5.688;2023-05-28T01:55:35;11.60;88.90
55785;DHT22;41709;52.536;5.688;2023-05-28T01:58:00;11.60;88.90
55785;DHT22;41709;52.536;5.688;2023-05-28T02:00:26;11.60;88.90
55785;DHT22;41709;52.536;5.688;2023-05-28T02:02:52;11.50;89.00
55785;DHT22;41709;52.536;5.688;2023-05-28T02:05:18;11.50;89.10
55785;DHT22;41709;52.536;5.688;2023-05-28T02:07:43;11.50;89.30
55785;DHT22;41709;52.536;5.688;2023-05-28T02:10:09;11.50;89.50
55785;DHT22;41709;52.536;5.688;2023-05-28T02:12:35;11.50;89.50
55785;DHT22;41709;52.536;5.688;2023-05-28T02:15:00;11.50;89.60
55785;DHT22;41709;52.536;5.688;2023-05-28T02:17:26;11.40;89.80
55785;DHT22;41709;52.536;5.688;2023-05-28T02:19:52;11.40;90.30
55785;DHT22;41709;52.536;5.688;2023-05-28T02:22:18;11.40;90.10
55785;DHT22;41709;52.536;5.688;2023-05-28T02:24:43;11.40;90.10
55785;DHT22;41709;52.536;5.688;2023-05-28T02:27:11;11.60;90.10
55785;DHT22;41709;52.536;5.688;2023-05-28T02:29:37;11.50;90.10
55785;DHT22;41709;52.536;5.688;2023-05-28T02:32:03;11.50;90.10
55785;DHT22;41709;52.536;5.688;2023-05-28T02:34:29;11.50;90.10
55785;DHT22;41709;52.536;5.688;2023-05-28T02:36:55;11.50;90.10
55785;DHT22;41709;52.536;5.688;2023-05-28T02:39:22;11.50;90.10
55785;DHT22;41709;52.536;5.688;2023-05-28T02:41:48;11.30;90.00
55785;DHT22;41709;52.536;5.688;2023-05-28T02:44:14;11.30;90.10
55785;DHT22;41709;52.536;5.688;2023-05-28T02:46:39;11.30;90.20
55785;DHT22;41709;52.536;5.688;2023-05-28T02:49:05;11.20;90.20
55785;DHT22;41709;52.536;5.688;2023-05-28T02:51:31;11.20;90.20
55785;DHT22;41709;52.536;5.688;2023-05-28T02:53:57;11.20;90.20
55785;DHT22;41709;52.536;5.688;2023-05-28T02:56:22;11.20;90.20
55785;DHT22;41709;52.536;5.688;2023-05-28T02:58:48;11.20;90.20
55785;DHT22;41709;52.536;5.688;2023-05-28T03:01:13;11.10;90.20
55785;DHT22;41709;52.536;5.688;2023-05-28T03:03:39;11.10;90.30
55785;DHT22;41709;52.536;5.688;2023-05-28T03:06:04;11.10;90.30
55785;DHT22;41709;52.536;5.688;2023-05-28T03:08:32;11.10;90.30
55785;DHT22;41709;52.536;5.688;2023-05-28T03:10:57;11.10;90.30
55785;DHT22;41709;52.536;5.688;2023-05-28T03:13:23;11.10;90.30
55785;DHT22;41709;52.536;5.688;2023-05-28T03:15:48;11.00;90.30
55785;DHT22;41709;52.536;5.688;2023-05-28T03:18:14;11.10;90.30
55785;DHT22;41709;52.536;5.688;2023-05-28T03:20:40;11.10;90.20
55785;DHT22;41709;52.536;5.688;2023-05-28T03:23:06;11.10;90.20
55785;DHT22;41709;52.536;5.688;2023-05-28T03:25:32;11.10;90.20
55785;DHT22;41709;52.536;5.688;2023-05-28T03:27:57;11.10;90.20
55785;DHT22;41709;52.536;5.688;2023-05-28T03:30:23;11.20;90.20
55785;DHT22;41709;52.536;5.688;2023-05-28T03:32:49;11.10;90.10
55785;DHT22;41709;52.536;5.688;2023-05-28T03:35:15;11.20;90.20
55785;DHT22;41709;52.536;5.688;2023-05-28T03:37:41;11.20;90.10
55785;DHT22;41709;52.536;5.688;2023-05-28T03:40:07;11.10;90.50
55785;DHT22;41709;52.536;5.688;2023-05-28T03:42:34;11.10;90.20
55785;DHT22;41709;52.536;5.688;2023-05-28T03:45:00;11.10;90.30
55785;DHT22;41709;52.536;5.688;2023-05-28T03:47:26;11.10;90.30
55785;DHT22;41709;52.536;5.688;2023-05-28T03:49:52;11.10;90.30
55785;DHT22;41709;52.536;5.688;2023-05-28T03:52:18;11.10;90.30
55785;DHT22;41709;52.536;5.688;2023-05-28T03:54:43;11.10;90.20
55785;DHT22;41709;52.536;5.688;2023-05-28T03:57:09;11.10;90.20
55785;DHT22;41709;52.536;5.688;2023-05-28T03:59:35;11.10;90.20
55785;DHT22;41709;52.536;5.688;2023-05-28T04:02:00;11.10;90.20
55785;DHT22;41709;52.536;5.688;2023-05-28T04:04:26;11.00;90.10
55785;DHT22;41709;52.536;5.688;2023-05-28T04:06:51;11.00;90.20
55785;DHT22;41709;52.536;5.688;2023-05-28T04:09:17;11.00;90.20
55785;DHT22;41709;52.536;5.688;2023-05-28T04:11:42;10.90;90.10
55785;DHT22;41709;52.536;5.688;2023-05-28T04:14:08;10.90;90.20
55785;DHT22;41709;52.536;5.688;2023-05-28T04:16:34;11.00;90.20
55785;DHT22;41709;52.536;5.688;2023-05-28T04:19:00;10.90;90.20
55785;DHT22;41709;52.536;5.688;2023-05-28T04:21:26;10.90;90.10
55785;DHT22;41709;52.536;5.688;2023-05-28T04:23:54;10.90;90.10
55785;DHT22;41709;52.536;5.688;2023-05-28T04:26:19;10.90;90.10
55785;DHT22;41709;52.536;5.688;2023-05-28T04:28:45;10.90;90.00
55785;DHT22;41709;52.536;5.688;2023-05-28T04:31:12;11.00;90.00
55785;DHT22;41709;52.536;5.688;2023-05-28T04:33:37;11.00;90.00
55785;DHT22;41709;52.536;5.688;2023-05-28T04:36:04;11.10;90.00
55785;DHT22;41709;52.536;5.688;2023-05-28T04:38:29;11.10;89.70
55785;DHT22;41709;52.536;5.688;2023-05-28T04:40:57;11.20;89.80
55785;DHT22;41709;52.536;5.688;2023-05-28T04:43:23;11.20;89.60
55785;DHT22;41709;52.536;5.688;2023-05-28T04:45:49;11.30;89.60
55785;DHT22;41709;52.536;5.688;2023-05-28T04:48:14;11.30;89.50
55785;DHT22;41709;52.536;5.688;2023-05-28T04:50:40;11.40;89.50
55785;DHT22;41709;52.536;5.688;2023-05-28T04:53:06;11.40;89.50
55785;DHT22;41709;52.536;5.688;2023-05-28T04:55:32;11.40;89.40
55785;DHT22;41709;52.536;5.688;2023-05-28T04:57:57;11.50;89.40
55785;DHT22;41709;52.536;5.688;2023-05-28T05:00:23;11.60;89.40
55785;DHT22;41709;52.536;5.688;2023-05-28T05:02:52;11.60;89.00
55785;DHT22;41709;52.536;5.688;2023-05-28T05:05:18;11.60;88.70
55785;DHT22;41709;52.536;5.688;2023-05-28T05:07:44;11.70;88.30
55785;DHT22;41709;52.536;5.688;2023-05-28T05:10:10;11.70;88.10
55785;DHT22;41709;52.536;5.688;2023-05-28T05:12:36;11.80;87.90
55785;DHT22;41709;52.536;5.688;2023-05-28T05:15:03;11.90;88.00
55785;DHT22;41709;52.536;5.688;2023-05-28T05:17:29;11.90;87.90
55785;DHT22;41709;52.536;5.688;2023-05-28T05:19:56;11.90;87.80
55785;DHT22;41709;52.536;5.688;2023-05-28T05:22:22;11.90;87.90
55785;DHT22;41709;52.536;5.688;2023-05-28T05:24:47;11.90;87.90
55785;DHT22;41709;52.536;5.688;2023-05-28T05:27:14;11.80;87.90
55785;DHT22;41709;52.536;5.688;2023-05-28T05:29:40;11.90;87.90
55785;DHT22;41709;52.536;5.688;2023-05-28T05:32:06;11.90;87.60
55785;DHT22;41709;52.536;5.688;2023-05-28T05:34:32;11.90;87.40
55785;DHT22;41709;52.536;5.688;2023-05-28T05:36:57;12.00;87.40
55785;DHT22;41709;52.536;5.688;2023-05-28T05:39:24;12.00;87.40
55785;DHT22;41709;52.536;5.688;2023-05-28T05:41:50;12.00;87.20
55785;DHT22;41709;52.536;5.688;2023-05-28T05:44:15;12.00;87.00
55785;DHT22;41709;52.536;5.688;2023-05-28T05:46:41;12.00;86.90
55785;DHT22;41709;52.536;5.688;2023-05-28T05:49:06;12.00;86.90
55785;DHT22;41709;52.536;5.688;2023-05-28T05:51:33;12.00;87.20
55785;DHT22;41709;52.536;5.688;2023-05-28T05:53:58;12.10;86.90
55785;DHT22;41709;52.536;5.688;2023-05-28T05:56:24;12.20;86.80
55785;DHT22;41709;52.536;5.688;2023-05-28T05:58:51;12.20;86.50
55785;DHT22;41709;52.536;5.688;2023-05-28T06:01:17;12.30;86.10
55785;DHT22;41709;52.536;5.688;2023-05-28T06:03:42;12.40;85.90
55785;DHT22;41709;52.536;5.688;2023-05-28T06:06:08;12.40;85.70
55785;DHT22;41709;52.536;5.688;2023-05-28T06:08:35;12.50;85.70
55785;DHT22;41709;52.536;5.688;2023-05-28T06:11:00;12.70;85.80
55785;DHT22;41709;52.536;5.688;2023-05-28T06:13:26;12.80;84.90
55785;DHT22;41709;52.536;5.688;2023-05-28T06:15:52;12.80;85.00
55785;DHT22;41709;52.536;5.688;2023-05-28T06:18:17;12.90;84.50
55785;DHT22;41709;52.536;5.688;2023-05-28T06:20:43;13.00;84.30
55785;DHT22;41709;52.536;5.688;2023-05-28T06:23:09;13.00;83.10
55785;DHT22;41709;52.536;5.688;2023-05-28T06:25:34;13.00;83.10
55785;DHT22;41709;52.536;5.688;2023-05-28T06:28:01;13.10;82.40
55785;DHT22;41709;52.536;5.688;2023-05-28T06:30:27;13.10;82.00
55785;DHT22;41709;52.536;5.688;2023-05-28T06:32:52;13.20;81.50
55785;DHT22;41709;52.536;5.688;2023-05-28T06:35:18;13.20;81.40
55785;DHT22;41709;52.536;5.688;2023-05-28T06:37:43;13.30;81.70
55785;DHT22;41709;52.536;5.688;2023-05-28T06:40:09;13.30;81.70
55785;DHT22;41709;52.536;5.688;2023-05-28T06:42:36;13.30;81.70
55785;DHT22;41709;52.536;5.688;2023-05-28T06:45:02;13.30;80.90
55785;DHT22;41709;52.536;5.688;2023-05-28T06:47:27;13.40;80.70
55785;DHT22;41709;52.536;5.688;2023-05-28T06:49:54;13.60;81.70
55785;DHT22;41709;52.536;5.688;2023-05-28T06:52:20;13.60;80.10
55785;DHT22;41709;52.536;5.688;2023-05-28T06:54:45;13.60;79.00
55785;DHT22;41709;52.536;5.688;2023-05-28T06:57:11;13.70;79.20
55785;DHT22;41709;52.536;5.688;2023-05-28T06:59:37;13.80;79.40
55785;DHT22;41709;52.536;5.688;2023-05-28T07:02:02;13.80;79.10
55785;DHT22;41709;52.536;5.688;2023-05-28T07:04:28;13.90;78.50
55785;DHT22;41709;52.536;5.688;2023-05-28T07:06:53;14.10;78.60
55785;DHT22;41709;52.536;5.688;2023-05-28T07:09:19;14.30;78.40
55785;DHT22;41709;52.536;5.688;2023-05-28T07:11:44;14.30;77.40
55785;DHT22;41709;52.536;5.688;2023-05-28T07:14:10;14.40;77.30
55785;DHT22;41709;52.536;5.688;2023-05-28T07:16:36;14.50;77.40
55785;DHT22;41709;52.536;5.688;2023-05-28T07:19:01;14.50;76.60
55785;DHT22;41709;52.536;5.688;2023-05-28T07:21:27;14.60;75.80
55785;DHT22;41709;52.536;5.688;2023-05-28T07:23:52;14.70;77.10
55785;DHT22;41709;52.536;5.688;2023-05-28T07:26:18;14.80;77.60
55785;DHT22;41709;52.536;5.688;2023-05-28T07:28:43;15.00;76.00
55785;DHT22;41709;52.536;5.688;2023-05-28T07:31:09;15.10;75.90
55785;DHT22;41709;52.536;5.688;2023-05-28T07:33:35;15.20;75.10
55785;DHT22;41709;52.536;5.688;2023-05-28T07:36:00;15.30;75.70
55785;DHT22;41709;52.536;5.688;2023-05-28T07:38:26;15.40;75.20
55785;DHT22;41709;52.536;5.688;2023-05-28T07:40:52;15.40;73.90
55785;DHT22;41709;52.536;5.688;2023-05-28T07:43:18;15.50;73.80
55785;DHT22;41709;52.536;5.688;2023-05-28T07:45:43;15.60;74.20
55785;DHT22;41709;52.536;5.688;2023-05-28T07:48:09;15.80;73.10
55785;DHT22;41709;52.536;5.688;2023-05-28T07:50:34;15.80;71.90
55785;DHT22;41709;52.536;5.688;2023-05-28T07:53:00;15.90;71.80
55785;DHT22;41709;52.536;5.688;2023-05-28T07:55:27;16.00;72.20
55785;DHT22;41709;52.536;5.688;2023-05-28T07:57:52;16.10;72.20
55785;DHT22;41709;52.536;5.688;2023-05-28T08:00:18;16.10;71.20
55785;DHT22;41709;52.536;5.688;2023-05-28T08:02:44;16.20;71.20
55785;DHT22;41709;52.536;5.688;2023-05-28T08:05:09;16.30;71.70
55785;DHT22;41709;52.536;5.688;2023-05-28T08:07:35;16.30;70.10
55785;DHT22;41709;52.536;5.688;2023-05-28T08:10:01;16.40;70.00
55785;DHT22;41709;52.536;5.688;2023-05-28T08:12:28;16.30;69.30
55785;DHT22;41709;52.536;5.688;2023-05-28T08:14:54;16.40;70.10
55785;DHT22;41709;52.536;5.688;2023-05-28T08:17:23;16.40;70.00
55785;DHT22;41709;52.536;5.688;2023-05-28T08:19:49;16.50;70.30
55785;DHT22;41709;52.536;5.688;2023-05-28T08:22:16;16.50;70.50
55785;DHT22;41709;52.536;5.688;2023-05-28T08:24:41;16.60;70.10
55785;DHT22;41709;52.536;5.688;2023-05-28T08:27:07;16.60;70.00
55785;DHT22;41709;52.536;5.688;2023-05-28T08:29:32;16.60;69.50
55785;DHT22;41709;52.536;5.688;2023-05-28T08:31:58;16.60;69.50
55785;DHT22;41709;52.536;5.688;2023-05-28T08:34:24;16.60;69.70
55785;DHT22;41709;52.536;5.688;2023-05-28T08:36:50;16.60;69.50
55785;DHT22;41709;52.536;5.688;2023-05-28T08:39:16;16.60;69.30
55785;DHT22;41709;52.536;5.688;2023-05-28T08:41:43;16.60;69.60
55785;DHT22;41709;52.536;5.688;2023-05-28T08:44:10;16.70;70.00
55785;DHT22;41709;52.536;5.688;2023-05-28T08:46:36;16.80;69.60
55785;DHT22;41709;52.536;5.688;2023-05-28T08:49:02;16.80;69.40
55785;DHT22;41709;52.536;5.688;2023-05-28T08:51:30;16.90;68.00
55785;DHT22;41709;52.536;5.688;2023-05-28T08:53:59;16.90;67.30
55785;DHT22;41709;52.536;5.688;2023-05-28T08:56:25;16.90;67.10
55785;DHT22;41709;52.536;5.688;2023-05-28T08:58:51;17.00;67.50
55785;DHT22;41709;52.536;5.688;2023-05-28T09:01:16;17.10;67.50
55785;DHT22;41709;52.536;5.688;2023-05-28T09:03:42;17.20;67.40
55785;DHT22;41709;52.536;5.688;2023-05-28T09:06:08;17.20;66.80
55785;DHT22;41709;52.536;5.688;2023-05-28T09:08:34;17.30;67.20
55785;DHT22;41709;52.536;5.688;2023-05-28T09:11:13;17.40;66.10
55785;DHT22;41709;52.536;5.688;2023-05-28T09:13:47;17.30;65.60
55785;DHT22;41709;52.536;5.688;2023-05-28T09:16:20;17.30;65.40
55785;DHT22;41709;52.536;5.688;2023-05-28T09:18:49;17.40;65.30
55785;DHT22;41709;52.536;5.688;2023-05-28T09:21:16;17.30;65.60
55785;DHT22;41709;52.536;5.688;2023-05-28T09:23:43;17.50;64.60
55785;DHT22;41709;52.536;5.688;2023-05-28T09:26:11;17.50;64.90
55785;DHT22;41709;52.536;5.688;2023-05-28T09:28:41;17.50;64.20
55785;DHT22;41709;52.536;5.688;2023-05-28T09:31:07;17.50;65.00
55785;DHT22;41709;52.536;5.688;2023-05-28T09:33:33;17.60;65.20
55785;DHT22;41709;52.536;5.688;2023-05-28T09:36:02;17.70;65.60
55785;DHT22;41709;52.536;5.688;2023-05-28T09:38:41;17.70;64.50
55785;DHT22;41709;52.536;5.688;2023-05-28T09:41:23;17.80;65.00
55785;DHT22;41709;52.536;5.688;2023-05-28T09:44:00;17.90;65.20
55785;DHT22;41709;52.536;5.688;2023-05-28T09:46:33;17.90;64.30
55785;DHT22;41709;52.536;5.688;2023-05-28T09:49:00;17.90;64.20
55785;DHT22;41709;52.536;5.688;2023-05-28T09:51:31;17.80;64.60
55785;DHT22;41709;52.536;5.688;2023-05-28T09:53:59;17.80;64.50
55785;DHT22;41709;52.536;5.688;2023-05-28T09:56:30;17.90;65.00
55785;DHT22;41709;52.536;5.688;2023-05-28T09:59:02;17.90;65.20
55785;DHT22;41709;52.536;5.688;2023-05-28T10:01:46;17.90;65.00
55785;DHT22;41709;52.536;5.688;2023-05-28T10:04:17;17.90;64.10
55785;DHT22;41709;52.536;5.688;2023-05-28T10:06:44;17.90;64.40
55785;DHT22;41709;52.536;5.688;2023-05-28T10:09:14;18.00;64.80
55785;DHT22;41709;52.536;5.688;2023-05-28T10:11:43;18.00;65.10
55785;DHT22;41709;52.536;5.688;2023-05-28T10:14:10;18.10;66.10
55785;DHT22;41709;52.536;5.688;2023-05-28T10:16:37;18.30;66.50
55785;DHT22;41709;52.536;5.688;2023-05-28T10:19:03;18.30;65.10
55785;DHT22;41709;52.536;5.688;2023-05-28T10:21:28;18.40;64.10
55785;DHT22;41709;52.536;5.688;2023-05-28T10:23:55;18.50;65.10
55785;DHT22;41709;52.536;5.688;2023-05-28T10:26:21;18.60;65.90
55785;DHT22;41709;52.536;5.688;2023-05-28T10:28:54;18.70;64.40
55785;DHT22;41709;52.536;5.688;2023-05-28T10:31:21;18.70;63.60
55785;DHT22;41709;52.536;5.688;2023-05-28T10:33:47;18.80;64.10
55785;DHT22;41709;52.536;5.688;2023-05-28T10:36:14;18.70;63.80
55785;DHT22;41709;52.536;5.688;2023-05-28T10:38:57;18.60;64.40
55785;DHT22;41709;52.536;5.688;2023-05-28T10:41:24;18.70;64.60
55785;DHT22;41709;52.536;5.688;2023-05-28T10:43:53;18.70;62.80
55785;DHT22;41709;52.536;5.688;2023-05-28T10:46:19;18.60;64.50
55785;DHT22;41709;52.536;5.688;2023-05-28T10:49:13;18.70;64.90
55785;DHT22;41709;52.536;5.688;2023-05-28T10:57:21;18.80;63.40
55785;DHT22;41709;52.536;5.688;2023-05-28T10:59:52;18.90;63.20
55785;DHT22;41709;52.536;5.688;2023-05-28T11:04:44;18.90;63.40
55785;DHT22;41709;52.536;5.688;2023-05-28T11:07:12;19.00;62.40
55785;DHT22;41709;52.536;5.688;2023-05-28T11:09:38;18.90;60.50
55785;DHT22;41709;52.536;5.688;2023-05-28T11:12:04;19.00;60.90
55785;DHT22;41709;52.536;5.688;2023-05-28T11:14:37;19.00;61.10
55785;DHT22;41709;52.536;5.688;2023-05-28T11:17:10;19.00;60.80
55785;DHT22;41709;52.536;5.688;2023-05-28T11:19:47;18.90;59.70
55785;DHT22;41709;52.536;5.688;2023-05-28T11:22:13;19.00;58.80
55785;DHT22;41709;52.536;5.688;2023-05-28T11:25:03;19.00;58.40
55785;DHT22;41709;52.536;5.688;2023-05-28T11:27:31;19.10;59.00
55785;DHT22;41709;52.536;5.688;2023-05-28T11:30:07;19.10;58.00
55785;DHT22;41709;52.536;5.688;2023-05-28T11:32:33;19.10;57.70
55785;DHT22;41709;52.536;5.688;2023-05-28T11:34:59;19.10;57.60
55785;DHT22;41709;52.536;5.688;2023-05-28T11:37:30;19.20;56.50
55785;DHT22;41709;52.536;5.688;2023-05-28T11:39:58;19.20;55.80
55785;DHT22;41709;52.536;5.688;2023-05-28T11:42:26;19.30;55.00
55785;DHT22;41709;52.536;5.688;2023-05-28T11:44:51;19.30;55.90
55785;DHT22;41709;52.536;5.688;2023-05-28T11:47:18;19.30;54.40
55785;DHT22;41709;52.536;5.688;2023-05-28T11:49:44;19.40;55.30
55785;DHT22;41709;52.536;5.688;2023-05-28T11:52:11;19.30;55.30
55785;DHT22;41709;52.536;5.688;2023-05-28T11:54:38;19.30;54.80
55785;DHT22;41709;52.536;5.688;2023-05-28T11:57:04;19.30;54.30
55785;DHT22;41709;52.536;5.688;2023-05-28T11:59:31;19.30;54.00
55785;DHT22;41709;52.536;5.688;2023-05-28T12:02:10;19.50;54.90
55785;DHT22;41709;52.536;5.688;2023-05-28T12:04:36;19.50;54.20
55785;DHT22;41709;52.536;5.688;2023-05-28T12:07:01;19.60;54.40
55785;DHT22;41709;52.536;5.688;2023-05-28T12:09:27;19.60;53.60
55785;DHT22;41709;52.536;5.688;2023-05-28T12:12:06;19.70;54.40
55785;DHT22;41709;52.536;5.688;2023-05-28T12:14:35;19.70;53.90
55785;DHT22;41709;52.536;5.688;2023-05-28T12:17:08;19.70;53.80
55785;DHT22;41709;52.536;5.688;2023-05-28T12:19:38;19.70;54.70
55785;DHT22;41709;52.536;5.688;2023-05-28T12:22:12;19.70;54.40
55785;DHT22;41709;52.536;5.688;2023-05-28T12:24:51;19.70;53.70
55785;DHT22;41709;52.536;5.688;2023-05-28T12:27:19;19.70;52.60
55785;DHT22;41709;52.536;5.688;2023-05-28T12:29:45;19.70;51.60
55785;DHT22;41709;52.536;5.688;2023-05-28T12:32:11;19.70;52.00
55785;DHT22;41709;52.536;5.688;2023-05-28T12:34:37;19.70;51.40
55785;DHT22;41709;52.536;5.688;2023-05-28T12:37:02;19.80;50.90
55785;DHT22;41709;52.536;5.688;2023-05-28T12:39:29;19.80;50.10
55785;DHT22;41709;52.536;5.688;2023-05-28T12:41:56;19.90;50.40
55785;DHT22;41709;52.536;5.688;2023-05-28T12:44:22;19.80;50.90
55785;DHT22;41709;52.536;5.688;2023-05-28T12:46:47;19.90;49.80
55785;DHT22;41709;52.536;5.688;2023-05-28T12:49:13;20.00;48.40
55785;DHT22;41709;52.536;5.688;2023-05-28T12:51:39;19.90;48.00
55785;DHT22;41709;52.536;5.688;2023-05-28T12:54:06;20.00;46.60
55785;DHT22;41709;52.536;5.688;2023-05-28T12:56:32;19.90;46.40
55785;DHT22;41709;52.536;5.688;2023-05-28T12:58:58;19.90;45.70
55785;DHT22;41709;52.536;5.688;2023-05-28T13:01:24;20.00;46.80
55785;DHT22;41709;52.536;5.688;2023-05-28T13:03:50;20.00;46.70
55785;DHT22;41709;52.536;5.688;2023-05-28T13:06:16;20.10;45.10
55785;DHT22;41709;52.536;5.688;2023-05-28T13:08:42;20.10;45.80
55785;DHT22;41709;52.536;5.688;2023-05-28T13:11:08;20.10;44.60
55785;DHT22;41709;52.536;5.688;2023-05-28T13:13:34;20.00;43.70
55785;DHT22;41709;52.536;5.688;2023-05-28T13:15:59;20.00;43.80
55785;DHT22;41709;52.536;5.688;2023-05-28T13:18:25;20.10;44.20
55785;DHT22;41709;52.536;5.688;2023-05-28T13:20:51;20.20;43.50
55785;DHT22;41709;52.536;5.688;2023-05-28T13:23:16;20.20;42.70
55785;DHT22;41709;52.536;5.688;2023-05-28T13:25:42;20.20;41.80
55785;DHT22;41709;52.536;5.688;2023-05-28T13:28:07;20.10;41.70
55785;DHT22;41709;52.536;5.688;2023-05-28T13:30:33;20.20;41.00
55785;DHT22;41709;52.536;5.688;2023-05-28T13:32:59;20.20;40.70
55785;DHT22;41709;52.536;5.688;2023-05-28T13:35:24;20.30;41.30
55785;DHT22;41709;52.536;5.688;2023-05-28T13:37:50;20.50;39.90
55785;DHT22;41709;52.536;5.688;2023-05-28T13:40:17;20.60;40.50
55785;DHT22;41709;52.536;5.688;2023-05-28T13:42:46;20.60;41.70
55785;DHT22;41709;52.536;5.688;2023-05-28T13:45:14;20.70;41.30
55785;DHT22;41709;52.536;5.688;2023-05-28T13:47:40;20.70;40.30
55785;DHT22;41709;52.536;5.688;2023-05-28T13:50:06;20.70;39.70
55785;DHT22;41709;52.536;5.688;2023-05-28T13:52:31;20.80;41.30
55785;DHT22;41709;52.536;5.688;2023-05-28T13:54:57;20.90;39.70
55785;DHT22;41709;52.536;5.688;2023-05-28T13:57:22;20.90;41.10
55785;DHT22;41709;52.536;5.688;2023-05-28T13:59:48;21.10;41.70
55785;DHT22;41709;52.536;5.688;2023-05-28T14:02:13;21.20;42.30
55785;DHT22;41709;52.536;5.688;2023-05-28T14:04:39;21.30;41.40
55785;DHT22;41709;52.536;5.688;2023-05-28T14:07:05;21.40;41.50
55785;DHT22;41709;52.536;5.688;2023-05-28T14:09:30;21.30;41.50
55785;DHT22;41709;52.536;5.688;2023-05-28T14:11:56;21.40;42.00
55785;DHT22;41709;52.536;5.688;2023-05-28T14:14:22;21.50;42.20
55785;DHT22;41709;52.536;5.688;2023-05-28T14:16:48;21.60;42.30
55785;DHT22;41709;52.536;5.688;2023-05-28T14:19:13;21.70;41.90
55785;DHT22;41709;52.536;5.688;2023-05-28T14:21:39;21.70;42.40
55785;DHT22;41709;52.536;5.688;2023-05-28T14:24:07;21.80;42.90
55785;DHT22;41709;52.536;5.688;2023-05-28T14:26:32;21.90;43.70
55785;DHT22;41709;52.536;5.688;2023-05-28T14:28:58;21.90;44.00
55785;DHT22;41709;52.536;5.688;2023-05-28T14:31:24;21.90;45.20
55785;DHT22;41709;52.536;5.688;2023-05-28T14:33:49;21.90;45.10
55785;DHT22;41709;52.536;5.688;2023-05-28T14:36:15;21.90;50.50
55785;DHT22;41709;52.536;5.688;2023-05-28T14:38:40;22.00;51.50
55785;DHT22;41709;52.536;5.688;2023-05-28T14:41:06;22.00;51.10
55785;DHT22;41709;52.536;5.688;2023-05-28T14:43:32;21.90;52.70
55785;DHT22;41709;52.536;5.688;2023-05-28T14:45:57;21.80;52.90
55785;DHT22;41709;52.536;5.688;2023-05-28T14:48:23;21.70;52.60
55785;DHT22;41709;52.536;5.688;2023-05-28T14:50:49;21.60;53.40
55785;DHT22;41709;52.536;5.688;2023-05-28T14:53:14;21.50;53.70
55785;DHT22;41709;52.536;5.688;2023-05-28T14:55:40;21.50;53.50
55785;DHT22;41709;52.536;5.688;2023-05-28T14:58:05;21.30;54.40
55785;DHT22;41709;52.536;5.688;2023-05-28T15:00:31;21.30;54.20
55785;DHT22;41709;52.536;5.688;2023-05-28T15:02:57;21.20;54.60
55785;DHT22;41709;52.536;5.688;2023-05-28T15:05:22;21.10;54.20
55785;DHT22;41709;52.536;5.688;2023-05-28T15:07:48;21.10;55.60
55785;DHT22;41709;52.536;5.688;2023-05-28T15:10:14;21.10;54.80
55785;DHT22;41709;52.536;5.688;2023-05-28T15:12:40;21.10;54.70
55785;DHT22;41709;52.536;5.688;2023-05-28T15:15:06;21.10;54.60
55785;DHT22;41709;52.536;5.688;2023-05-28T15:17:32;21.00;54.00
55785;DHT22;41709;52.536;5.688;2023-05-28T15:19:58;21.00;53.90
55785;DHT22;41709;52.536;5.688;2023-05-28T15:22:24;20.90;53.50
55785;DHT22;41709;52.536;5.688;2023-05-28T15:24:50;20.90;53.60
55785;DHT22;41709;52.536;5.688;2023-05-28T15:27:15;20.80;53.50
55785;DHT22;41709;52.536;5.688;2023-05-28T15:29:42;20.70;53.00
55785;DHT22;41709;52.536;5.688;2023-05-28T15:32:11;20.70;53.70
55785;DHT22;41709;52.536;5.688;2023-05-28T15:34:37;20.70;53.30